Time;durP1;ratioP1;P1;durP2;ratioP2;P2;SDS_P1;SDS_P2;PMS_P1;PMS_P2;Temp;Humidity;BMP_temperature;BMP_pressure;BME280_temperature;BME280_humidity;BME280_pressure;Samples;Min_cycle;Max_cycle;Signal;HPM_P1;HPM_P2
2021/11/23 00:00:06;;;;;;;;;;;;;;;-0.17;89.72;97826.53;30001;982;1859;-63
2021/11/23 00:00:39;;;;;;;;;;;;;;;-0.17;89.92;97831.88;30001;982;1877;-63
2021/11/23 00:01:10;;;;;;;;;;;;;;;-0.19;90.01;97828.59;30001;982;1877;-64
2021/11/23 00:01:40;;;;;;;;;;;;;;;-0.18;89.98;97829.41;30001;966;1890;-64
2021/11/23 00:02:12;;;;;;;;;;;;;;;-0.16;90.05;97830.84;30001;982;1877;-64
2021/11/23 00:02:43;;;;;;;;;;;;;;;-0.14;89.93;97828.81;30001;983;1881;-64
2021/11/23 00:03:17;;;;;;;;;;;;;;;-0.14;89.96;97826.13;30001;983;1876;-64
2021/11/23 00:03:49;;;;;;;;;;;;;;;-0.15;89.68;97829.81;30001;983;1863;-63
2021/11/23 00:04:20;;;;;;;;;;;;;;;-0.16;90.14;97832.69;30001;983;1872;-65
2021/11/23 00:04:51;;;;;;;;;;;;;;;-0.17;89.96;97837.22;30001;983;1863;-65
2021/11/23 00:05:22;;;;;;;;;;;;;;;-0.17;90.03;97837.22;30001;983;1872;-63
2021/11/23 00:05:52;;;;;;;;;;;;;;;-0.17;89.75;97828.37;30001;977;1887;-63
2021/11/23 00:06:24;;;;;;;;;;;;;;;-0.17;89.96;97836.37;30001;978;1892;-64
2021/11/23 00:06:55;;;;;;;;;;;;;;;-0.21;89.80;97835.97;30001;982;1881;-65
2021/11/23 00:07:26;;;;;;;;;;;;;;;-0.21;89.85;97830.63;30001;982;1877;-66
2021/11/23 00:07:56;;;;;;;;;;;;;;;-0.22;89.56;97828.97;30001;982;1881;-63
2021/11/23 00:08:27;;;;;;;;;;;;;;;-0.19;89.89;97830.44;30001;982;1877;-64
2021/11/23 00:08:58;;;;;;;;;;;;;;;-0.18;89.75;97834.75;30001;982;1864;-64
2021/11/23 00:09:29;;;;;;;;;;;;;;;-0.18;89.88;97835.56;30001;982;1873;-64
2021/11/23 00:10:00;;;;;;;;;;;;;;;-0.18;89.75;97838.22;30001;982;1864;-64
2021/11/23 00:10:31;;;;;;;;;;;;;;;-0.18;89.75;97835.56;30001;983;1872;-65
2021/11/23 00:11:02;;;;;;;;;;;;;;;-0.19;89.71;97833.09;30001;983;1881;-63
2021/11/23 00:11:32;;;;;;;;;;;;;;;-0.17;89.65;97836.37;30002;773;1013;-64
2021/11/23 00:12:04;;;;;;;;;;;;;;;-0.17;89.61;97831.88;30001;983;1881;-64
2021/11/23 00:12:35;;;;;;;;;;;;;;;-0.19;89.83;97833.09;30001;983;1877;-62
2021/11/23 00:13:06;;;;;;;;;;;;;;;-0.20;89.56;97832.28;30001;983;1881;-64
2021/11/23 00:13:37;;;;;;;;;;;;;;;-0.18;89.71;97837.41;30001;983;1877;-65
2021/11/23 00:14:07;;;;;;;;;;;;;;;-0.16;89.85;97838.03;30001;983;1881;-63
2021/11/23 00:14:38;;;;;;;;;;;;;;;-0.15;89.77;97835.16;30001;982;1877;-65
2021/11/23 00:15:10;;;;;;;;;;;;;;;-0.15;89.33;97840.50;30001;982;1864;-62
2021/11/23 00:15:41;;;;;;;;;;;;;;;-0.18;89.34;97835.56;30001;982;1873;-62
2021/11/23 00:16:12;;;;;;;;;;;;;;;-0.17;89.59;97837.22;30001;982;1881;-63
2021/11/23 00:16:43;;;;;;;;;;;;;;;-0.17;89.76;97841.72;30001;982;1877;-63
2021/11/23 00:17:15;;;;;;;;;;;;;;;-0.19;89.33;97833.91;30001;983;1881;-63
2021/11/23 00:17:45;;;;;;;;;;;;;;;-0.19;89.46;97830.44;30001;983;1876;-64
2021/11/23 00:18:16;;;;;;;;;;;;;;;-0.20;89.52;97837.59;30001;983;1881;-63
2021/11/23 00:18:47;;;;;;;;;;;;;;;-0.21;89.29;97837.81;30001;983;1859;-65
2021/11/23 00:19:18;;;;;;;;;;;;;;;-0.26;89.21;97833.06;30001;983;1859;-65
2021/11/23 00:19:49;;;;;;;;;;;;;;;-0.27;89.47;97834.09;30001;983;1877;-65
2021/11/23 00:20:20;;;;;;;;;;;;;;;-0.30;89.38;97828.34;30001;983;1881;-64
2021/11/23 00:20:51;;;;;;;;;;;;;;;-0.30;89.52;97831.81;30001;983;1877;-65
2021/11/23 00:21:22;;;;;;;;;;;;;;;-0.30;89.63;97837.16;30001;983;1864;-56
2021/11/23 00:21:52;;;;;;;;;;;;;;;-0.29;89.81;97841.47;30001;982;1873;-63
2021/11/23 00:22:23;;;;;;;;;;;;;;;-0.26;89.68;97835.75;30001;982;1881;-64
2021/11/23 00:22:54;;;;;;;;;;;;;;;-0.23;89.62;97837.19;30001;982;1877;-63
2021/11/23 00:23:26;;;;;;;;;;;;;;;-0.24;89.65;97830.19;30001;982;1881;-64
2021/11/23 00:23:56;;;;;;;;;;;;;;;-0.22;89.48;97839.66;30001;982;1877;-64
2021/11/23 00:24:27;;;;;;;;;;;;;;;-0.21;89.39;97835.13;30001;983;1754;-64
2021/11/23 00:24:59;;;;;;;;;;;;;;;-0.20;89.58;97837.59;30001;983;1872;-64
2021/11/23 00:25:30;;;;;;;;;;;;;;;-0.19;89.35;97833.91;30001;983;1881;-65
2021/11/23 00:26:01;;;;;;;;;;;;;;;-0.17;89.61;97844.37;30001;983;1859;-64
2021/11/23 00:26:32;;;;;;;;;;;;;;;-0.18;89.58;97832.88;30001;983;1877;-65
2021/11/23 00:27:03;;;;;;;;;;;;;;;-0.17;89.33;97836.37;30001;983;1814;-63
2021/11/23 00:27:34;;;;;;;;;;;;;;;-0.17;89.39;97831.88;30001;983;1881;-65
2021/11/23 00:28:05;;;;;;;;;;;;;;;-0.15;89.49;97832.50;30001;983;1877;-64
2021/11/23 00:28:36;;;;;;;;;;;;;;;-0.15;89.31;97829.81;30001;983;1881;-65
2021/11/23 00:29:07;;;;;;;;;;;;;;;-0.15;89.23;97835.16;30001;983;1877;-63
2021/11/23 00:29:41;;;;;;;;;;;;;;;-0.15;89.47;97837.00;30001;982;1864;-65
2021/11/23 00:30:12;;;;;;;;;;;;;;;-0.15;89.40;97834.34;30001;982;1873;-63
2021/11/23 00:30:43;;;;;;;;;;;;;;;-0.15;89.14;97839.66;30002;819;1015;-63
2021/11/23 00:31:14;;;;;;;;;;;;;;;-0.14;89.33;97830.66;30001;982;1877;-64
2021/11/23 00:31:45;;;;;;;;;;;;;;;-0.14;89.17;97836.81;30001;982;1881;-63
2021/11/23 00:32:16;;;;;;;;;;;;;;;-0.14;89.36;97831.47;30001;983;1876;-65
2021/11/23 00:32:48;;;;;;;;;;;;;;;-0.13;89.51;97834.97;30001;983;1881;-65
2021/11/23 00:33:19;;;;;;;;;;;;;;;-0.12;89.17;97839.28;30001;983;1876;-66
2021/11/23 00:33:50;;;;;;;;;;;;;;;-0.11;89.10;97836.41;30001;983;1881;-64
2021/11/23 00:34:21;;;;;;;;;;;;;;;-0.10;88.88;97831.88;30001;983;1859;-63
2021/11/23 00:34:52;;;;;;;;;;;;;;;-0.09;88.64;97834.34;30001;983;1877;-63
2021/11/23 00:35:23;;;;;;;;;;;;;;;-0.09;88.52;97834.34;30001;983;1877;-65
2021/11/23 00:35:54;;;;;;;;;;;;;;;-0.07;88.52;97837.66;30001;983;1881;-65
2021/11/23 00:36:25;;;;;;;;;;;;;;;-0.06;88.50;97833.12;30001;983;1877;-65
2021/11/23 00:36:59;;;;;;;;;;;;;;;-0.05;88.17;97832.94;30001;982;1881;-63
2021/11/23 00:37:30;;;;;;;;;;;;;;;-0.05;88.30;97830.25;30001;982;1877;-64
2021/11/23 00:38:01;;;;;;;;;;;;;;;-0.05;88.41;97829.44;30001;982;1881;-64
2021/11/23 00:38:32;;;;;;;;;;;;;;;-0.04;88.47;97831.91;30001;982;1877;-64
2021/11/23 00:39:03;;;;;;;;;;;;;;;-0.04;88.13;97833.75;30001;982;1882;-65
2021/11/23 00:39:34;;;;;;;;;;;;;;;-0.03;88.43;97832.72;30001;983;1859;-65
2021/11/23 00:40:06;;;;;;;;;;;;;;;-0.04;88.24;97837.25;30001;983;1876;-65
2021/11/23 00:40:38;;;;;;;;;;;;;;;-0.03;88.51;97832.72;30001;983;1859;-65
2021/11/23 00:41:10;;;;;;;;;;;;;;;-0.03;88.48;97822.88;30001;983;1877;-64
2021/11/23 00:41:47;;;;;;;;;;;;;;;0.00;88.48;97832.31;30001;983;1877;-64
2021/11/23 00:42:18;;;;;;;;;;;;;;;-0.01;88.17;97826.16;30001;983;1881;-65
2021/11/23 00:42:49;;;;;;;;;;;;;;;-0.01;88.26;97836.84;30001;983;1877;-63
2021/11/23 00:43:20;;;;;;;;;;;;;;;-0.03;87.94;97833.56;30001;983;1881;-63
2021/11/23 00:43:51;;;;;;;;;;;;;;;-0.04;88.30;97826.56;30001;983;1877;-64
2021/11/23 00:44:22;;;;;;;;;;;;;;;-0.05;88.11;97832.94;30001;983;1881;-65
2021/11/23 00:44:53;;;;;;;;;;;;;;;-0.05;88.02;97835.59;30001;982;1877;-63
2021/11/23 00:45:24;;;;;;;;;;;;;;;-0.08;87.74;97833.34;30001;982;1882;-65
2021/11/23 00:45:55;;;;;;;;;;;;;;;-0.10;88.25;97837.22;30001;982;1860;-64
2021/11/23 00:46:26;;;;;;;;;;;;;;;-0.14;88.27;97839.47;30001;982;1877;-63
2021/11/23 00:46:57;;;;;;;;;;;;;;;-0.14;88.39;97842.13;30001;983;1876;-63
2021/11/23 00:47:28;;;;;;;;;;;;;;;-0.15;88.38;97834.34;30001;983;1881;-56
2021/11/23 00:47:59;;;;;;;;;;;;;;;-0.15;88.52;97845.00;30001;983;1859;-65
2021/11/23 00:48:30;;;;;;;;;;;;;;;-0.18;88.20;97834.75;30001;983;1877;-63
2021/11/23 00:49:01;;;;;;;;;;;;;;;-0.21;87.96;97840.47;30001;983;1877;-63
2021/11/23 00:49:32;;;;;;;;;;;;;;;-0.23;88.28;97840.66;30001;983;1881;-65
2021/11/23 00:50:03;;;;;;;;;;;;;;;-0.25;88.09;97845.38;30001;983;1877;-63
2021/11/23 00:50:35;;;;;;;;;;;;;;;-0.26;88.26;97833.06;30001;983;1881;-65
2021/11/23 00:51:06;;;;;;;;;;;;;;;-0.25;88.32;97836.56;30001;983;1859;-65
2021/11/23 00:51:36;;;;;;;;;;;;;;;-0.23;88.55;97842.53;30001;982;1877;-65
2021/11/23 00:52:07;;;;;;;;;;;;;;;-0.24;88.57;97836.34;30001;982;1877;-65
2021/11/23 00:52:38;;;;;;;;;;;;;;;-0.23;88.41;97840.66;30001;982;1881;-63
2021/11/23 00:53:09;;;;;;;;;;;;;;;-0.23;88.62;97842.53;30001;982;1877;-65
2021/11/23 00:53:40;;;;;;;;;;;;;;;-0.22;88.79;97844.16;30001;982;1882;-63
2021/11/23 00:54:12;;;;;;;;;;;;;;;-0.20;88.77;97847.44;30001;985;1877;-63
2021/11/23 00:54:42;;;;;;;;;;;;;;;-0.21;88.71;97841.28;30001;983;1864;-64
2021/11/23 00:55:13;;;;;;;;;;;;;;;-0.21;88.71;97843.97;30001;983;1872;-65
2021/11/23 00:55:45;;;;;;;;;;;;;;;-0.22;88.53;97838.81;30001;983;1881;-63
2021/11/23 00:56:16;;;;;;;;;;;;;;;-0.20;88.75;97839.44;30001;983;1877;-64
2021/11/23 00:56:47;;;;;;;;;;;;;;;-0.20;88.31;97842.13;30001;983;1863;-64
2021/11/23 00:57:18;;;;;;;;;;;;;;;-0.20;88.72;97844.78;30001;983;1872;-64
2021/11/23 00:57:49;;;;;;;;;;;;;;;-0.20;88.67;97842.94;30001;983;1881;-64
2021/11/23 00:58:20;;;;;;;;;;;;;;;-0.20;88.18;97842.94;30001;983;1877;-64
2021/11/23 00:58:50;;;;;;;;;;;;;;;-0.21;88.50;97841.28;30001;982;1881;-65
2021/11/23 00:59:21;;;;;;;;;;;;;;;-0.21;88.14;97843.97;30001;982;1877;-63
2021/11/23 00:59:52;;;;;;;;;;;;;;;-0.22;88.03;97834.31;30001;982;1864;-63
2021/11/23 01:00:23;;;;;;;;;;;;;;;-0.18;88.32;97834.75;30001;982;1873;-55
2021/11/23 01:00:54;;;;;;;;;;;;;;;-0.14;88.29;97838.66;30001;982;1882;-56
2021/11/23 01:01:25;;;;;;;;;;;;;;;-0.13;88.08;97842.97;30001;982;1877;-64
2021/11/23 01:01:56;;;;;;;;;;;;;;;-0.13;88.03;97838.44;30001;982;1882;-64
2021/11/23 01:02:30;;;;;;;;;;;;;;;-0.14;87.96;97836.81;30001;983;1876;-65
2021/11/23 01:03:01;;;;;;;;;;;;;;;-0.15;88.18;97837.81;30001;983;1881;-63
2021/11/23 01:03:32;;;;;;;;;;;;;;;-0.17;88.11;97837.22;30001;983;1802;-64
2021/11/23 01:04:04;;;;;;;;;;;;;;;-0.20;88.18;97842.94;30001;983;1877;-65
2021/11/23 01:04:35;;;;;;;;;;;;;;;-0.23;87.83;97838.00;30001;983;1877;-65
2021/11/23 01:05:07;;;;;;;;;;;;;;;-0.28;88.01;97840.44;30001;983;1881;-63
2021/11/23 01:05:38;;;;;;;;;;;;;;;-0.30;88.08;97842.50;30001;983;1877;-65
2021/11/23 01:06:08;;;;;;;;;;;;;;;-0.30;87.99;97841.66;30001;983;1881;-64
2021/11/23 01:06:40;;;;;;;;;;;;;;;-0.31;88.18;97846.19;30001;982;1859;-64
2021/11/23 01:07:11;;;;;;;;;;;;;;;-0.34;88.17;97850.06;30001;982;1877;-63
2021/11/23 01:07:42;;;;;;;;;;;;;;;-0.36;87.97;97844.16;30001;982;1877;-63
2021/11/23 01:08:16;;;;;;;;;;;;;;;-0.39;87.93;97838.38;30001;982;1882;-64
2021/11/23 01:08:47;;;;;;;;;;;;;;;-0.45;87.91;97840.00;30001;982;1877;-63
2021/11/23 01:09:18;;;;;;;;;;;;;;;-0.47;88.03;97842.03;30001;982;1882;-63
2021/11/23 01:09:49;;;;;;;;;;;;;;;-0.46;88.01;97848.19;30001;983;1843;-64
2021/11/23 01:10:20;;;;;;;;;;;;;;;-0.46;88.18;97849.03;30001;983;1881;-64
2021/11/23 01:10:51;;;;;;;;;;;;;;;-0.45;88.49;97845.34;30001;983;1877;-65
2021/11/23 01:11:22;;;;;;;;;;;;;;;-0.43;88.56;97837.13;30001;983;1881;-63
2021/11/23 01:11:53;;;;;;;;;;;;;;;-0.43;88.54;97839.81;30001;983;1859;-62
2021/11/23 01:12:24;;;;;;;;;;;;;;;-0.45;88.28;97845.34;30001;983;1877;-63
2021/11/23 01:12:54;;;;;;;;;;;;;;;-0.44;88.58;97846.16;30001;983;1877;-64
2021/11/23 01:13:25;;;;;;;;;;;;;;;-0.46;88.34;97834.88;30001;983;1881;-64
2021/11/23 01:13:56;;;;;;;;;;;;;;;-0.44;88.73;97846.16;30001;982;1877;-63
2021/11/23 01:14:27;;;;;;;;;;;;;;;-0.45;88.63;97836.50;30001;982;1881;-61
2021/11/23 01:14:59;;;;;;;;;;;;;;;-0.46;88.49;97843.69;30001;982;1877;-63
2021/11/23 01:15:30;;;;;;;;;;;;;;;-0.47;88.75;97842.03;30001;982;1882;-63
2021/11/23 01:16:01;;;;;;;;;;;;;;;-0.46;88.56;97842.88;30001;982;1877;-63
2021/11/23 01:16:32;;;;;;;;;;;;;;;-0.49;88.80;97836.09;30001;982;1882;-64
2021/11/23 01:17:03;;;;;;;;;;;;;;;-0.47;88.92;97841.22;30001;982;1860;-64
2021/11/23 01:17:34;;;;;;;;;;;;;;;-0.48;88.91;97839.56;30001;983;1876;-63
2021/11/23 01:18:05;;;;;;;;;;;;;;;-0.49;88.62;97837.94;30001;983;1876;-64
2021/11/23 01:18:37;;;;;;;;;;;;;;;-0.51;88.84;97839.97;30001;983;1881;-64
2021/11/23 01:19:09;;;;;;;;;;;;;;;-0.53;88.91;97842.84;30001;983;1877;-64
2021/11/23 01:19:40;;;;;;;;;;;;;;;-0.52;88.83;97843.66;30001;983;1864;-64
2021/11/23 01:20:11;;;;;;;;;;;;;;;-0.52;89.16;97849.00;30001;983;1872;-63
2021/11/23 01:20:42;;;;;;;;;;;;;;;-0.51;89.10;97850.63;30001;983;1881;-65
2021/11/23 01:21:14;;;;;;;;;;;;;;;-0.51;89.07;97845.31;30001;983;1877;-63
2021/11/23 01:21:45;;;;;;;;;;;;;;;-0.51;88.80;97842.63;30001;982;1881;-65
2021/11/23 01:22:16;;;;;;;;;;;;;;;-0.53;89.19;97844.69;30001;982;1877;-65
2021/11/23 01:22:47;;;;;;;;;;;;;;;-0.54;88.92;97846.53;30001;982;1881;-63
2021/11/23 01:23:18;;;;;;;;;;;;;;;-0.54;88.97;97845.69;30001;982;1877;-63
2021/11/23 01:23:49;;;;;;;;;;;;;;;-0.51;89.02;97847.97;30001;982;1882;-63
2021/11/23 01:24:19;;;;;;;;;;;;;;;-0.51;88.95;97850.63;30001;983;1876;-63
2021/11/23 01:24:50;;;;;;;;;;;;;;;-0.53;88.87;97844.69;30001;983;1759;-64
2021/11/23 01:25:21;;;;;;;;;;;;;;;-0.56;88.75;97851.22;30001;983;1872;-64
2021/11/23 01:25:55;;;;;;;;;;;;;;;-0.56;89.03;97853.06;30001;983;1881;-64
2021/11/23 01:26:26;;;;;;;;;;;;;;;-0.56;88.99;97848.56;30001;983;1877;-64
2021/11/23 01:26:57;;;;;;;;;;;;;;;-0.56;88.76;97853.06;30001;969;1884;-64
2021/11/23 01:27:27;;;;;;;;;;;;;;;-0.58;88.71;97850.59;30001;983;1872;-63
2021/11/23 01:27:58;;;;;;;;;;;;;;;-0.60;88.96;97851.81;30001;983;1881;-63
2021/11/23 01:28:29;;;;;;;;;;;;;;;-0.59;88.77;97856.12;30001;986;1877;-56
2021/11/23 01:29:00;;;;;;;;;;;;;;;-0.60;88.97;97852.66;30001;982;1881;-66
2021/11/23 01:29:31;;;;;;;;;;;;;;;-0.60;88.88;97852.66;30001;982;1877;-63
2021/11/23 01:30:06;;;;;;;;;;;;;;;-0.60;89.18;97852.66;30001;982;1881;-65
2021/11/23 01:30:37;;;;;;;;;;;;;;;-0.61;88.79;97851.00;30001;982;1877;-65
2021/11/23 01:31:08;;;;;;;;;;;;;;;-0.61;89.12;97860.84;30001;982;1882;-62
2021/11/23 01:31:39;;;;;;;;;;;;;;;-0.61;88.95;97853.66;30001;983;1876;-64
2021/11/23 01:32:11;;;;;;;;;;;;;;;-0.61;89.18;97855.50;30001;983;1863;-64
2021/11/23 01:32:42;;;;;;;;;;;;;;;-0.63;89.13;97863.69;30001;983;1872;-64
2021/11/23 01:33:13;;;;;;;;;;;;;;;-0.64;89.36;97861.22;30001;983;1881;-63
2021/11/23 01:33:44;;;;;;;;;;;;;;;-0.63;89.50;97857.53;30001;983;1876;-64
2021/11/23 01:34:19;;;;;;;;;;;;;;;-0.63;89.37;97860.22;30001;983;1881;-65
2021/11/23 01:34:50;;;;;;;;;;;;;;;-0.63;89.53;97858.38;30001;983;1877;-64
2021/11/23 01:35:21;;;;;;;;;;;;;;;-0.62;89.54;97859.19;30001;983;1881;-64
2021/11/23 01:35:52;;;;;;;;;;;;;;;-0.61;89.12;97860.84;30001;983;1877;-65
2021/11/23 01:36:23;;;;;;;;;;;;;;;-0.63;89.38;97860.22;30001;983;1881;-64
2021/11/23 01:36:54;;;;;;;;;;;;;;;-0.63;89.26;97862.88;30001;982;1877;-64
2021/11/23 01:37:25;;;;;;;;;;;;;;;-0.62;89.38;97853.84;30001;982;1864;-64
2021/11/23 01:37:56;;;;;;;;;;;;;;;-0.59;89.35;97864.12;30001;982;1873;-63
2021/11/23 01:38:27;;;;;;;;;;;;;;;-0.58;89.46;97855.09;30001;982;1864;-65
2021/11/23 01:38:58;;;;;;;;;;;;;;;-0.57;89.52;97859.44;30001;983;1872;-65
2021/11/23 01:39:29;;;;;;;;;;;;;;;-0.59;89.46;97858.78;30001;983;1881;-64
2021/11/23 01:40:00;;;;;;;;;;;;;;;-0.59;89.41;97859.63;30001;983;1877;-64
2021/11/23 01:40:31;;;;;;;;;;;;;;;-0.56;89.56;97861.06;30001;983;1881;-64
2021/11/23 01:41:02;;;;;;;;;;;;;;;-0.56;89.46;97863.72;30001;983;1859;-65
2021/11/23 01:41:33;;;;;;;;;;;;;;;-0.58;89.42;97866.59;30001;983;1877;-64
2021/11/23 01:42:04;;;;;;;;;;;;;;;-0.60;89.54;97860.63;30001;983;1877;-63
2021/11/23 01:42:36;;;;;;;;;;;;;;;-0.61;89.27;97869.66;30001;983;1881;-64
2021/11/23 01:43:07;;;;;;;;;;;;;;;-0.64;88.90;97869.22;30001;983;1877;-63
2021/11/23 01:43:38;;;;;;;;;;;;;;;-0.68;89.20;97861.63;30001;982;1864;-63
2021/11/23 01:44:09;;;;;;;;;;;;;;;-0.67;89.19;97863.28;30001;982;1873;-64
2021/11/23 01:44:40;;;;;;;;;;;;;;;-0.68;88.91;97866.97;30001;982;1864;-63
2021/11/23 01:45:11;;;;;;;;;;;;;;;-0.72;88.94;97871.06;30001;982;1873;-64
2021/11/23 01:45:42;;;;;;;;;;;;;;;-0.75;88.95;97860.78;30001;982;1882;-64
2021/11/23 01:46:13;;;;;;;;;;;;;;;-0.76;88.86;97869.81;30001;982;1877;-63
2021/11/23 01:46:44;;;;;;;;;;;;;;;-0.75;89.07;97860.78;30001;983;1881;-63
2021/11/23 01:47:15;;;;;;;;;;;;;;;-0.75;89.03;97866.13;30001;983;1876;-62
2021/11/23 01:47:46;;;;;;;;;;;;;;;-0.75;89.42;97860.78;30001;983;1881;-64
2021/11/23 01:48:16;;;;;;;;;;;;;;;-0.76;89.55;97859.16;30001;983;1877;-63
2021/11/23 01:48:47;;;;;;;;;;;;;;;-0.75;89.54;97866.13;30001;983;1881;-63
2021/11/23 01:49:18;;;;;;;;;;;;;;;-0.77;89.53;97857.50;30001;983;1877;-63
2021/11/23 01:49:49;;;;;;;;;;;;;;;-0.77;89.47;97862.84;30001;962;1884;-64
2021/11/23 01:50:20;;;;;;;;;;;;;;;-0.76;89.42;97859.16;30001;983;1873;-62
2021/11/23 01:50:51;;;;;;;;;;;;;;;-0.76;89.70;97863.66;30001;982;1881;-64
2021/11/23 01:51:21;;;;;;;;;;;;;;;-0.75;89.81;97860.78;30001;982;1877;-63
2021/11/23 01:51:52;;;;;;;;;;;;;;;-0.75;89.70;97860.78;30001;982;1881;-62
2021/11/23 01:52:24;;;;;;;;;;;;;;;-0.74;89.79;97862.44;30001;982;1877;-63
2021/11/23 01:52:56;;;;;;;;;;;;;;;-0.77;89.83;97860.16;30001;982;1882;-64
2021/11/23 01:53:28;;;;;;;;;;;;;;;-0.75;89.76;97854.63;30001;982;1877;-64
2021/11/23 01:53:59;;;;;;;;;;;;;;;-0.74;89.87;97862.44;30001;982;1882;-64
2021/11/23 01:54:30;;;;;;;;;;;;;;;-0.73;90.02;97858.75;30001;983;1859;-65
2021/11/23 01:55:02;;;;;;;;;;;;;;;-0.72;89.81;97860.41;30001;983;1877;-63
2021/11/23 01:55:34;;;;;;;;;;;;;;;-0.72;89.63;97859.56;30001;983;1877;-63
2021/11/23 01:56:05;;;;;;;;;;;;;;;-0.72;89.75;97864.91;30001;983;1863;-56
2021/11/23 01:56:36;;;;;;;;;;;;;;;-0.71;89.74;97861.22;30001;983;1872;-63
2021/11/23 01:57:08;;;;;;;;;;;;;;;-0.73;89.59;97864.09;30001;983;1881;-64
2021/11/23 01:57:38;;;;;;;;;;;;;;;-0.72;89.50;97860.41;30001;983;1877;-63
2021/11/23 01:58:13;;;;;;;;;;;;;;;-0.73;89.75;97864.09;30001;977;1895;-64
2021/11/23 01:58:43;;;;;;;;;;;;;;;-0.73;89.87;97858.75;30001;982;1877;-62
2021/11/23 01:59:14;;;;;;;;;;;;;;;-0.74;89.76;97867.78;30001;982;1864;-64
2021/11/23 01:59:47;;;;;;;;;;;;;;;-0.74;89.58;97857.09;30001;982;1873;-64
2021/11/23 02:00:18;;;;;;;;;;;;;;;-0.73;89.75;97857.94;30001;982;1882;-63
2021/11/23 02:00:49;;;;;;;;;;;;;;;-0.74;89.49;97865.09;30001;982;1877;-64
2021/11/23 02:01:20;;;;;;;;;;;;;;;-0.77;89.48;97857.50;30001;982;1882;-63
2021/11/23 02:01:51;;;;;;;;;;;;;;;-0.78;89.68;97861.19;30001;983;1859;-57
2021/11/23 02:02:22;;;;;;;;;;;;;;;-0.79;89.53;97864.88;30001;983;1876;-64
2021/11/23 02:02:54;;;;;;;;;;;;;;;-0.82;89.20;97865.25;30001;962;1798;-62
2021/11/23 02:03:24;;;;;;;;;;;;;;;-0.84;89.23;97861.97;30001;983;1881;-64
2021/11/23 02:03:56;;;;;;;;;;;;;;;-0.84;89.63;97867.28;30001;983;1877;-62
2021/11/23 02:04:27;;;;;;;;;;;;;;;-0.85;89.58;97868.31;30001;983;1881;-64
2021/11/23 02:04:58;;;;;;;;;;;;;;;-0.86;89.64;97866.66;30001;983;1859;-64
2021/11/23 02:05:29;;;;;;;;;;;;;;;-0.88;89.64;97858.06;30001;983;1877;-64
2021/11/23 02:06:00;;;;;;;;;;;;;;;-0.88;89.54;97868.69;30001;982;1877;-56
2021/11/23 02:06:32;;;;;;;;;;;;;;;-0.89;89.42;97864.41;30001;982;1864;-56
2021/11/23 02:07:03;;;;;;;;;;;;;;;-0.89;89.59;97864.41;30001;982;1873;-63
2021/11/23 02:07:34;;;;;;;;;;;;;;;-0.89;89.87;97861.72;30001;982;1881;-62
2021/11/23 02:08:06;;;;;;;;;;;;;;;-0.89;89.97;97864.41;30001;982;1877;-64
2021/11/23 02:08:38;;;;;;;;;;;;;;;-0.89;89.77;97864.41;30001;982;1882;-64
2021/11/23 02:09:08;;;;;;;;;;;;;;;-0.88;90.07;97866.03;30001;982;1877;-64
2021/11/23 02:09:40;;;;;;;;;;;;;;;-0.88;90.04;97866.03;30001;983;1881;-63
2021/11/23 02:10:11;;;;;;;;;;;;;;;-0.89;89.93;97867.06;30001;983;1877;-63
2021/11/23 02:10:42;;;;;;;;;;;;;;;-0.87;89.93;97862.34;30001;983;1863;-63
2021/11/23 02:11:13;;;;;;;;;;;;;;;-0.86;90.07;97866.66;30001;983;1872;-62
2021/11/23 02:11:44;;;;;;;;;;;;;;;-0.86;89.95;97864.00;30001;983;1881;-66
2021/11/23 02:12:15;;;;;;;;;;;;;;;-0.86;89.94;97864.00;30001;983;1877;-56
2021/11/23 02:12:46;;;;;;;;;;;;;;;-0.86;89.96;97864.00;30001;983;1881;-63
2021/11/23 02:13:17;;;;;;;;;;;;;;;-0.87;89.67;97867.69;30001;983;1877;-56
2021/11/23 02:13:48;;;;;;;;;;;;;;;-0.90;89.67;97868.06;30001;982;1881;-64
2021/11/23 02:14:22;;;;;;;;;;;;;;;-0.92;89.47;97859.47;30001;982;1877;-64
2021/11/23 02:14:53;;;;;;;;;;;;;;;-0.92;89.59;97859.47;30001;982;1864;-65
2021/11/23 02:15:24;;;;;;;;;;;;;;;-0.92;89.83;97864.78;30001;982;1873;-63
2021/11/23 02:15:56;;;;;;;;;;;;;;;-0.94;89.74;97855.34;30001;983;1881;-64
2021/11/23 02:16:28;;;;;;;;;;;;;;;-0.95;89.82;97853.69;30001;983;1876;-64
2021/11/23 02:16:59;;;;;;;;;;;;;;;-0.95;89.71;97853.69;30001;983;1881;-63
2021/11/23 02:17:29;;;;;;;;;;;;;;;-0.93;89.82;97862.31;30001;983;1876;-63
2021/11/23 02:18:11;;;;;;;;;;;;;;;-0.94;90.00;97858.81;30001;983;1881;-56
2021/11/23 02:18:42;;;;;;;;;;;;;;;-0.92;89.81;97856.78;30001;983;1877;-63
2021/11/23 02:19:13;;;;;;;;;;;;;;;-0.90;90.17;97857.41;30001;983;1798;-63
2021/11/23 02:19:45;;;;;;;;;;;;;;;-0.89;90.04;97853.75;30001;983;1877;-64
2021/11/23 02:20:20;;;;;;;;;;;;;;;-0.88;90.13;97859.87;30001;983;1864;-65
2021/11/23 02:20:51;;;;;;;;;;;;;;;-0.88;90.02;97854.56;30001;983;1873;-64
2021/11/23 02:21:23;;;;;;;;;;;;;;;-0.88;90.33;97860.72;30001;982;1881;-65
2021/11/23 02:21:54;;;;;;;;;;;;;;;-0.86;90.30;97856.00;30001;982;1877;-63
2021/11/23 02:22:25;;;;;;;;;;;;;;;-0.86;90.19;97858.69;30001;970;1902;-63
2021/11/23 02:22:56;;;;;;;;;;;;;;;-0.86;90.21;97856.00;30001;982;1877;-64
2021/11/23 02:23:27;;;;;;;;;;;;;;;-0.85;90.17;97859.50;30001;983;1881;-56
2021/11/23 02:23:58;;;;;;;;;;;;;;;-0.84;90.10;97856.63;30001;983;1876;-64
2021/11/23 02:24:29;;;;;;;;;;;;;;;-0.88;89.77;97852.72;30001;983;1881;-64
2021/11/23 02:25:00;;;;;;;;;;;;;;;-0.89;89.82;97856.41;30001;983;1876;-65
2021/11/23 02:25:31;;;;;;;;;;;;;;;-0.89;89.89;97848.41;30001;983;1863;-66
2021/11/23 02:26:02;;;;;;;;;;;;;;;-0.90;89.74;97852.09;30001;983;1872;-62
2021/11/23 02:26:33;;;;;;;;;;;;;;;-0.91;89.90;97849.63;30001;985;1873;-65
2021/11/23 02:27:05;;;;;;;;;;;;;;;-0.92;89.93;97853.31;30001;983;1881;-64
2021/11/23 02:27:37;;;;;;;;;;;;;;;-0.94;90.01;97853.50;30001;983;1877;-65
2021/11/23 02:28:09;;;;;;;;;;;;;;;-0.94;89.98;97860.66;30001;983;1881;-63
2021/11/23 02:28:40;;;;;;;;;;;;;;;-0.95;89.83;97859.84;30001;982;1877;-63
2021/11/23 02:29:11;;;;;;;;;;;;;;;-0.95;89.83;97853.69;30001;982;1881;-65
2021/11/23 02:29:42;;;;;;;;;;;;;;;-0.97;89.96;97851.22;30001;982;1877;-56
2021/11/23 02:30:13;;;;;;;;;;;;;;;-0.99;89.70;97850.59;30001;982;1881;-63
2021/11/23 02:30:46;;;;;;;;;;;;;;;-0.99;89.69;97853.25;30001;982;1860;-65
2021/11/23 02:31:16;;;;;;;;;;;;;;;-1.00;89.77;97846.28;30001;983;1876;-65
2021/11/23 02:31:47;;;;;;;;;;;;;;;-1.03;89.60;97854.66;30001;983;1876;-63
2021/11/23 02:32:18;;;;;;;;;;;;;;;-1.05;89.93;97860.22;30001;983;1881;-63
2021/11/23 02:32:52;;;;;;;;;;;;;;;-1.07;89.86;97861.44;30001;983;1801;-64
2021/11/23 02:33:25;;;;;;;;;;;;;;;-1.08;89.88;97862.44;30001;983;1881;-66
2021/11/23 02:33:56;;;;;;;;;;;;;;;-1.11;89.82;97853.00;30001;983;1877;-64
2021/11/23 02:34:27;;;;;;;;;;;;;;;-1.11;89.64;97861.00;30001;983;1881;-64
2021/11/23 02:35:03;;;;;;;;;;;;;;;-1.11;89.96;97860.19;30001;983;1877;-65
2021/11/23 02:35:34;;;;;;;;;;;;;;;-1.11;89.90;97861.00;30001;983;1881;-64
2021/11/23 02:36:07;;;;;;;;;;;;;;;-1.12;90.16;97850.53;30001;982;1859;-63
2021/11/23 02:36:39;;;;;;;;;;;;;;;-1.13;90.03;97862.22;30001;982;1877;-64
2021/11/23 02:37:10;;;;;;;;;;;;;;;-1.12;90.15;97863.84;30001;982;1877;-63
2021/11/23 02:37:45;;;;;;;;;;;;;;;-1.11;89.97;97860.19;30001;963;1901;-57
2021/11/23 02:38:18;;;;;;;;;;;;;;;-1.12;90.08;97864.69;30001;982;1877;-62
2021/11/23 02:38:49;;;;;;;;;;;;;;;-1.13;89.97;97859.53;30001;983;1881;-63
2021/11/23 02:39:20;;;;;;;;;;;;;;;-1.15;90.22;97864.25;30001;983;1876;-64
2021/11/23 02:39:51;;;;;;;;;;;;;;;-1.15;90.12;97864.25;30001;983;1881;-56
2021/11/23 02:40:22;;;;;;;;;;;;;;;-1.17;90.20;97858.28;30001;983;1877;-64
2021/11/23 02:40:53;;;;;;;;;;;;;;;-1.18;90.08;97865.44;30001;983;1881;-63
2021/11/23 02:41:24;;;;;;;;;;;;;;;-1.16;90.04;97862.59;30001;983;1859;-65
2021/11/23 02:41:55;;;;;;;;;;;;;;;-1.16;90.45;97867.91;30001;983;1877;-64
2021/11/23 02:42:26;;;;;;;;;;;;;;;-1.18;90.26;97860.13;30001;983;1877;-64
2021/11/23 02:42:57;;;;;;;;;;;;;;;-1.17;90.22;97860.94;30001;983;1881;-63
2021/11/23 02:43:27;;;;;;;;;;;;;;;-1.18;90.49;97864.63;30001;983;1877;-64
2021/11/23 02:43:58;;;;;;;;;;;;;;;-1.18;90.27;97860.13;30001;982;1881;-63
2021/11/23 02:44:29;;;;;;;;;;;;;;;-1.18;90.40;97860.13;30001;982;1877;-64
2021/11/23 02:45:00;;;;;;;;;;;;;;;-1.19;90.30;97862.97;30001;982;1864;-65
2021/11/23 02:45:31;;;;;;;;;;;;;;;-1.22;90.39;97863.38;30001;982;1873;-62
2021/11/23 02:46:02;;;;;;;;;;;;;;;-1.26;90.22;97864.78;30001;982;1882;-64
2021/11/23 02:46:34;;;;;;;;;;;;;;;-1.29;90.49;97862.50;30001;983;1876;-64
2021/11/23 02:47:06;;;;;;;;;;;;;;;-1.29;90.38;97867.81;30001;983;1881;-65